createdAt,value
2018-12-05T00:01:48.249Z,49.30
2018-12-05T00:04:16.580Z,47.10
2018-12-05T00:06:45.111Z,42.77
2018-12-05T00:09:13.451Z,44.97
2018-12-05T00:11:41.965Z,48.60
2018-12-05T00:14:10.348Z,49.03
2018-12-05T00:16:38.703Z,44.80
2018-12-05T00:19:07.088Z,47.90
2018-12-05T00:21:35.466Z,47.00
2018-12-05T00:24:03.783Z,50.60
2018-12-05T00:26:32.432Z,49.73
2018-12-05T00:29:00.880Z,49.70
2018-12-05T00:31:29.212Z,55.07
2018-12-05T00:33:57.560Z,51.13
2018-12-05T00:36:25.916Z,52.70
2018-12-05T00:38:54.259Z,44.00
2018-12-05T00:41:22.625Z,45.87
2018-12-05T00:43:51.035Z,47.37
2018-12-05T00:46:19.821Z,47.13
2018-12-05T00:48:48.120Z,44.30
2018-12-05T00:51:16.524Z,49.47
2018-12-05T00:53:44.879Z,48.43
2018-12-05T00:56:13.232Z,54.80
2018-12-05T00:58:41.712Z,47.37
2018-12-05T01:01:10.070Z,48.87
2018-12-05T01:03:38.400Z,51.27
2018-12-05T01:06:06.841Z,50.33
2018-12-05T01:08:35.224Z,53.03
2018-12-05T01:11:03.575Z,51.80
2018-12-05T01:13:31.936Z,52.73
2018-12-05T01:16:00.295Z,54.03
2018-12-05T01:18:28.629Z,50.03
2018-12-05T01:20:57.007Z,48.27
2018-12-05T01:23:25.348Z,56.33
2018-12-05T01:25:53.712Z,57.30
2018-12-05T01:28:22.068Z,47.87
2018-12-05T01:30:50.418Z,48.87
2018-12-05T01:33:18.792Z,51.10
2018-12-05T01:35:47.152Z,47.50
2018-12-05T01:38:15.509Z,53.47
2018-12-05T01:40:44.025Z,53.13
2018-12-05T01:43:12.378Z,50.87
2018-12-05T01:45:40.708Z,47.57
2018-12-05T01:48:09.076Z,46.83
2018-12-05T01:50:37.412Z,54.57
2018-12-05T01:53:05.800Z,51.17
2018-12-05T01:55:34.152Z,54.70
2018-12-05T01:58:02.548Z,53.00
2018-12-05T02:00:30.893Z,49.70
2018-12-05T02:02:59.229Z,50.43
2018-12-05T02:05:27.569Z,57.20
2018-12-05T02:07:55.929Z,51.37
2018-12-05T02:10:24.270Z,51.83
2018-12-05T02:12:52.652Z,52.60
2018-12-05T02:15:21.013Z,61.57
2018-12-05T02:17:49.483Z,56.07
2018-12-05T02:20:17.811Z,52.33
2018-12-05T02:22:46.156Z,52.93
2018-12-05T02:25:14.473Z,57.97
2018-12-05T02:27:42.852Z,55.40
2018-12-05T02:30:11.196Z,55.57
2018-12-05T02:32:39.524Z,57.07
2018-12-05T02:35:08.038Z,52.77
2018-12-05T02:37:36.481Z,55.23
2018-12-05T02:40:05.924Z,63.90
2018-12-05T02:42:34.252Z,54.10
2018-12-05T02:45:02.810Z,58.60
2018-12-05T02:47:31.273Z,54.60
2018-12-05T02:49:59.639Z,57.23
2018-12-05T02:52:28.025Z,54.73
2018-12-05T02:54:56.731Z,54.17
2018-12-05T02:57:25.726Z,54.80
2018-12-05T02:59:54.484Z,61.17
2018-12-05T03:02:22.784Z,56.40
2018-12-05T03:04:51.167Z,67.73
2018-12-05T03:07:19.497Z,62.07
2018-12-05T03:09:47.870Z,62.73
2018-12-05T03:12:16.175Z,65.27
2018-12-05T03:14:44.572Z,67.53
2018-12-05T03:17:13.000Z,60.43
2018-12-05T03:19:41.417Z,68.93
2018-12-05T03:22:09.728Z,71.37
2018-12-05T03:24:38.062Z,66.43
2018-12-05T03:27:06.536Z,65.50
2018-12-05T03:29:34.876Z,62.60
2018-12-05T03:32:03.217Z,68.23
2018-12-05T03:34:31.790Z,65.23
2018-12-05T03:37:00.158Z,72.57
2018-12-05T03:39:28.500Z,59.87
2018-12-05T03:41:56.856Z,67.00
2018-12-05T03:44:25.285Z,64.10
2018-12-05T03:46:53.793Z,64.73
2018-12-05T03:49:22.155Z,63.97
2018-12-05T03:51:50.537Z,66.23
2018-12-05T03:54:18.858Z,60.83
2018-12-05T03:56:47.325Z,60.03
2018-12-05T03:59:15.932Z,59.90
2018-12-05T04:01:44.248Z,55.90
2018-12-05T04:04:12.616Z,61.53
2018-12-05T04:06:41.066Z,60.87
2018-12-05T04:09:09.416Z,61.93
2018-12-05T04:11:37.761Z,63.87
2018-12-05T04:14:06.127Z,62.83
2018-12-05T04:16:34.440Z,62.93
2018-12-05T04:19:02.800Z,60.07
2018-12-05T04:21:31.206Z,60.57
2018-12-05T04:23:59.554Z,63.20
2018-12-05T04:26:28.132Z,62.50
2018-12-05T04:28:56.460Z,65.40
2018-12-05T04:31:24.776Z,63.33
2018-12-05T04:33:53.160Z,58.87
2018-12-05T04:36:21.506Z,54.10
2018-12-05T04:38:49.932Z,58.50
2018-12-05T04:41:18.632Z,62.63
2018-12-05T04:43:46.975Z,61.40
2018-12-05T04:46:15.336Z,69.07
2018-12-05T04:48:43.676Z,67.23
2018-12-05T04:51:12.005Z,69.63
2018-12-05T04:53:40.485Z,63.77
2018-12-05T04:56:08.921Z,66.03
2018-12-05T04:58:37.224Z,61.47
2018-12-05T05:01:05.621Z,59.67
2018-12-05T05:03:34.018Z,59.30
2018-12-05T05:06:02.425Z,66.00
2018-12-05T05:08:30.804Z,61.90
2018-12-05T05:10:59.112Z,62.00
2018-12-05T05:13:27.429Z,64.80
2018-12-05T05:15:55.884Z,63.50
2018-12-05T05:18:24.245Z,62.53
2018-12-05T05:20:52.630Z,64.30
2018-12-05T05:23:21.278Z,58.40
2018-12-05T05:25:49.660Z,71.13
2018-12-05T05:28:17.999Z,65.20
2018-12-05T05:30:46.403Z,62.97
2018-12-05T05:33:14.733Z,67.03
2018-12-05T05:35:43.077Z,56.80
2018-12-05T05:38:11.395Z,60.60
2018-12-05T05:40:39.795Z,57.63
2018-12-05T05:43:08.118Z,58.10
2018-12-05T05:45:36.494Z,60.00
2018-12-05T05:48:04.835Z,58.17
2018-12-05T05:50:33.209Z,66.40
2018-12-05T05:53:01.839Z,59.13
2018-12-05T05:55:30.184Z,52.13
2018-12-05T05:57:58.640Z,58.43
2018-12-05T06:00:27.252Z,61.30
2018-12-05T06:02:55.584Z,59.93
2018-12-05T06:05:23.940Z,64.70
2018-12-05T06:07:52.276Z,57.40
2018-12-05T06:10:20.629Z,64.17
2018-12-05T06:12:48.972Z,59.20
2018-12-05T06:15:17.411Z,69.67
2018-12-05T06:17:45.725Z,55.73
2018-12-05T06:20:14.314Z,65.30
2018-12-05T06:22:42.653Z,58.07
2018-12-05T06:25:11.126Z,55.60
2018-12-05T06:27:39.492Z,61.93
2018-12-05T06:30:08.195Z,58.07
2018-12-05T06:32:36.539Z,56.87
2018-12-05T06:35:05.387Z,63.80
2018-12-05T06:37:33.754Z,52.70
2018-12-05T06:40:02.079Z,61.73
2018-12-05T06:42:30.460Z,63.50
2018-12-05T06:44:58.828Z,63.90
2018-12-05T06:47:27.996Z,55.90
2018-12-05T06:49:56.493Z,61.40
2018-12-05T06:52:24.897Z,64.70
2018-12-05T06:54:53.415Z,58.03
2018-12-05T06:57:21.819Z,59.93
2018-12-05T06:59:50.256Z,56.63
2018-12-05T07:02:18.671Z,58.07
2018-12-05T07:04:47.111Z,55.07
2018-12-05T07:07:15.704Z,53.00
2018-12-05T07:09:44.345Z,49.23
2018-12-05T07:12:12.909Z,49.43
2018-12-05T07:14:41.245Z,50.10
2018-12-05T07:17:09.612Z,52.00
2018-12-05T07:19:38.036Z,53.07
2018-12-05T07:22:06.375Z,47.20
2018-12-05T07:24:34.704Z,48.57
2018-12-05T07:27:03.090Z,50.33
2018-12-05T07:29:31.423Z,44.53
2018-12-05T07:31:59.780Z,47.10
2018-12-05T07:34:28.112Z,44.97
2018-12-05T07:36:56.665Z,41.03
2018-12-05T07:39:24.996Z,43.63
2018-12-05T07:41:53.324Z,41.30
2018-12-05T07:44:21.693Z,47.10
2018-12-05T07:46:50.029Z,48.13
2018-12-05T07:49:18.395Z,44.53
2018-12-05T07:51:46.932Z,46.47
2018-12-05T07:54:15.431Z,44.27
2018-12-05T07:56:43.797Z,45.67
2018-12-05T07:59:12.242Z,43.23
2018-12-05T08:01:40.595Z,42.53
2018-12-05T08:04:08.916Z,48.13
2018-12-05T08:06:37.268Z,46.20
2018-12-05T08:09:08.111Z,44.90
2018-12-05T08:11:36.723Z,47.60
2018-12-05T08:14:06.559Z,48.23
2018-12-05T08:16:35.188Z,48.97
2018-12-05T08:19:03.523Z,51.60
2018-12-05T08:21:31.868Z,44.20
2018-12-05T08:24:00.184Z,46.13
2018-12-05T08:26:28.576Z,46.93
2018-12-05T08:28:56.968Z,48.67
2018-12-05T08:31:25.474Z,49.60
2018-12-05T08:33:53.925Z,46.17
2018-12-05T08:36:22.267Z,48.10
2018-12-05T08:38:50.592Z,44.70
2018-12-05T08:41:18.969Z,47.47
2018-12-05T08:43:47.281Z,46.57
2018-12-05T08:46:15.624Z,47.70
2018-12-05T08:48:44.037Z,50.80
2018-12-05T08:51:12.436Z,48.87
2018-12-05T08:53:40.778Z,49.63
2018-12-05T08:56:09.113Z,48.30
2018-12-05T08:58:37.455Z,47.03
2018-12-05T09:01:05.784Z,50.73
2018-12-05T09:03:34.137Z,47.03
2018-12-05T09:06:02.492Z,46.53
2018-12-05T09:08:30.900Z,47.13
2018-12-05T09:10:59.416Z,44.43
2018-12-05T09:13:27.860Z,47.50
2018-12-05T09:15:56.209Z,48.07
2018-12-05T09:18:24.523Z,45.83
2018-12-05T09:20:52.890Z,42.87
2018-12-05T09:23:21.283Z,55.80
2018-12-05T09:25:49.619Z,52.53
2018-12-05T09:28:18.193Z,49.93
2018-12-05T09:30:46.914Z,45.80
2018-12-05T09:33:15.252Z,46.70
2018-12-05T09:35:43.619Z,48.40
2018-12-05T09:38:11.938Z,50.27
2018-12-05T09:40:40.328Z,43.97
2018-12-05T09:43:09.132Z,46.43
2018-12-05T09:45:37.624Z,47.67
2018-12-05T09:48:05.934Z,51.13
2018-12-05T09:50:34.372Z,47.00
2018-12-05T09:53:02.748Z,49.03
2018-12-05T09:55:31.109Z,51.40
2018-12-05T09:58:00.414Z,44.03
2018-12-05T10:00:28.852Z,47.03
2018-12-05T10:02:57.355Z,49.23
2018-12-05T10:05:25.667Z,50.77
2018-12-05T10:07:54.020Z,56.97
2018-12-05T10:10:22.373Z,48.23
2018-12-05T10:12:51.128Z,47.03
2018-12-05T10:15:19.459Z,46.13
2018-12-05T10:17:47.803Z,50.90
2018-12-05T10:20:16.160Z,48.57
2018-12-05T10:22:44.508Z,46.27
2018-12-05T10:25:12.957Z,51.97
2018-12-05T10:27:41.456Z,47.33
2018-12-05T10:30:09.938Z,46.97
2018-12-05T10:32:38.344Z,47.70
2018-12-05T10:35:06.816Z,47.13
2018-12-05T10:37:35.157Z,49.77
2018-12-05T10:40:03.500Z,47.20
2018-12-05T10:42:31.936Z,46.43
2018-12-05T10:45:00.372Z,52.20
2018-12-05T10:47:28.717Z,45.63
2018-12-05T10:49:57.061Z,45.87
2018-12-05T10:52:25.475Z,45.27
2018-12-05T10:54:53.897Z,48.70
2018-12-05T10:57:22.274Z,52.33
2018-12-05T10:59:50.631Z,55.40
2018-12-05T11:02:24.375Z,50.70
2018-12-05T11:04:58.180Z,52.90
2018-12-05T11:07:31.974Z,51.20
2018-12-05T11:10:05.777Z,45.87
2018-12-05T11:12:39.592Z,48.17
2018-12-05T11:15:13.412Z,50.60
2018-12-05T11:17:46.016Z,51.50
2018-12-05T11:20:19.763Z,46.47
2018-12-05T11:22:53.805Z,43.93
2018-12-05T11:25:23.184Z,43.77
2018-12-05T11:27:51.538Z,47.70
2018-12-05T11:30:20.072Z,51.23
2018-12-05T11:32:48.419Z,51.57
2018-12-05T11:35:16.881Z,44.87
2018-12-05T11:37:45.394Z,45.73
2018-12-05T11:40:13.787Z,51.23
2018-12-05T11:42:42.111Z,48.13
2018-12-05T11:45:10.609Z,47.20
2018-12-05T11:47:38.920Z,44.87
2018-12-05T11:50:07.307Z,46.80
2018-12-05T11:52:35.652Z,43.53
2018-12-05T11:55:04.265Z,43.90
2018-12-05T11:57:32.745Z,46.90
2018-12-05T12:00:01.100Z,48.83
2018-12-05T12:02:29.513Z,61.20
2018-12-05T12:04:58.046Z,49.00
2018-12-05T12:07:26.389Z,47.00
2018-12-05T12:09:55.231Z,43.30
2018-12-05T12:12:29.158Z,48.30
2018-12-05T12:14:57.509Z,45.90
2018-12-05T12:17:26.208Z,43.80
2018-12-05T12:19:54.556Z,42.70
2018-12-05T12:22:22.905Z,40.30
2018-12-05T12:24:51.287Z,44.37
2018-12-05T12:27:19.617Z,54.77
2018-12-05T12:29:47.945Z,43.50
2018-12-05T12:32:16.530Z,44.67
2018-12-05T12:34:44.841Z,43.87
2018-12-05T12:37:13.172Z,54.00
2018-12-05T12:39:41.587Z,44.53
2018-12-05T12:42:09.984Z,45.37
2018-12-05T12:44:38.304Z,42.53
2018-12-05T12:47:06.841Z,42.50
2018-12-05T12:49:35.319Z,43.40
2018-12-05T12:52:03.665Z,43.80
2018-12-05T12:54:32.075Z,48.23
2018-12-05T12:57:00.412Z,45.67
2018-12-05T12:59:28.817Z,41.80
2018-12-05T13:01:57.168Z,46.37
2018-12-05T13:04:25.500Z,47.80
2018-12-05T13:06:54.020Z,43.47
2018-12-05T13:09:22.384Z,42.53
2018-12-05T13:11:50.693Z,41.93
2018-12-05T13:14:19.077Z,40.67
2018-12-05T13:16:47.420Z,39.57
2018-12-05T13:19:15.805Z,47.27
2018-12-05T13:21:44.156Z,43.87
2018-12-05T13:24:12.806Z,48.57
2018-12-05T13:26:41.161Z,44.33
2018-12-05T13:29:09.625Z,40.67
2018-12-05T13:31:37.935Z,42.60
2018-12-05T13:34:06.315Z,40.33
2018-12-05T13:36:34.760Z,44.80
2018-12-05T13:39:05.236Z,44.43
2018-12-05T13:41:33.562Z,38.97
2018-12-05T13:44:02.188Z,44.13
2018-12-05T13:46:30.678Z,44.70
2018-12-05T13:48:59.054Z,42.90
2018-12-05T13:51:27.386Z,39.20
2018-12-05T13:53:55.764Z,41.07
2018-12-05T13:56:24.119Z,39.70
2018-12-05T13:58:52.459Z,38.00
2018-12-05T14:01:20.820Z,41.53
2018-12-05T14:03:49.222Z,46.20
2018-12-05T14:06:17.548Z,44.50
2018-12-05T14:08:45.937Z,46.10
2018-12-05T14:11:14.288Z,54.60
2018-12-05T14:13:42.694Z,50.07
2018-12-05T14:16:11.049Z,48.90
2018-12-05T14:18:39.384Z,49.90
2018-12-05T14:21:07.724Z,54.87
2018-12-05T14:23:36.237Z,55.27
2018-12-05T14:26:04.576Z,48.73
2018-12-05T14:28:32.996Z,58.30
2018-12-05T14:31:01.336Z,51.23
2018-12-05T14:33:29.667Z,56.10
2018-12-05T14:35:58.032Z,53.83
2018-12-05T14:38:26.357Z,46.30
2018-12-05T14:40:54.861Z,48.33
2018-12-05T14:43:23.208Z,47.07
2018-12-05T14:45:51.636Z,49.57
2018-12-05T14:48:20.342Z,41.77
2018-12-05T14:50:48.778Z,44.00
2018-12-05T14:53:17.225Z,43.17
2018-12-05T14:55:45.603Z,44.53
2018-12-05T14:58:13.988Z,40.10
2018-12-05T15:00:42.666Z,40.00
2018-12-05T15:03:11.150Z,42.37
2018-12-05T15:05:39.469Z,44.30
2018-12-05T15:08:07.837Z,39.10
2018-12-05T15:10:36.188Z,41.50
2018-12-05T15:13:04.521Z,48.37
2018-12-05T15:15:32.949Z,49.10
2018-12-05T15:18:01.320Z,42.27
2018-12-05T15:20:29.835Z,43.57
2018-12-05T15:22:58.312Z,45.03
2018-12-05T15:25:26.808Z,40.53
2018-12-05T15:27:55.165Z,44.80
2018-12-05T15:30:23.507Z,44.33
2018-12-05T15:32:51.957Z,40.73
2018-12-05T15:35:20.368Z,42.93
2018-12-05T15:37:48.889Z,44.63
2018-12-05T15:40:17.311Z,46.53
2018-12-05T15:42:45.698Z,46.13
2018-12-05T15:45:21.391Z,37.33
2018-12-05T15:47:44.632Z,42.87
2018-12-05T15:50:12.972Z,47.87
2018-12-05T15:52:41.287Z,44.00
2018-12-05T15:55:09.880Z,50.17
2018-12-05T15:57:38.216Z,45.13
2018-12-05T16:00:07.983Z,42.00
2018-12-05T16:02:36.560Z,43.43
2018-12-05T16:05:05.849Z,43.97
2018-12-05T16:07:34.254Z,45.43
2018-12-05T16:10:02.668Z,42.83
2018-12-05T16:12:31.300Z,40.27
2018-12-05T16:14:59.631Z,42.27
2018-12-05T16:17:28.084Z,44.57
2018-12-05T16:19:56.478Z,46.50
2018-12-05T16:22:24.846Z,43.80
2018-12-05T16:24:53.341Z,38.43
2018-12-05T16:27:21.791Z,40.00
2018-12-05T16:29:50.142Z,40.27
2018-12-05T16:32:18.515Z,39.70
2018-12-05T16:34:47.320Z,43.97
2018-12-05T16:37:15.702Z,43.03
2018-12-05T16:39:44.048Z,38.13
2018-12-05T16:42:12.421Z,42.10
2018-12-05T16:44:40.829Z,42.17
2018-12-05T16:47:09.317Z,41.63
2018-12-05T16:49:39.606Z,42.47
2018-12-05T16:52:08.201Z,44.20
2018-12-05T16:54:36.908Z,41.50
2018-12-05T16:57:05.265Z,42.60
2018-12-05T16:59:33.731Z,46.03
2018-12-05T17:02:02.381Z,41.93
2018-12-05T17:04:30.734Z,45.70
2018-12-05T17:06:59.168Z,46.87
2018-12-05T17:09:27.601Z,50.00
2018-12-05T17:11:56.036Z,41.23
2018-12-05T17:14:24.415Z,42.30
2018-12-05T17:16:52.796Z,42.73
2018-12-05T17:19:21.229Z,44.27
2018-12-05T17:21:49.644Z,40.70
2018-12-05T17:24:18.013Z,41.40
2018-12-05T17:26:46.402Z,44.37
2018-12-05T17:29:14.781Z,41.77
2018-12-05T17:31:43.157Z,40.43
2018-12-05T17:34:11.617Z,43.10
2018-12-05T17:36:40.074Z,44.27
2018-12-05T17:39:09.028Z,46.60
2018-12-05T17:41:37.576Z,44.20
2018-12-05T17:44:05.980Z,43.87
2018-12-05T17:46:34.314Z,42.90
2018-12-05T17:49:02.743Z,41.63
2018-12-05T17:51:31.150Z,42.50
2018-12-05T17:53:59.478Z,43.47
2018-12-05T17:56:27.876Z,44.43
2018-12-05T17:58:56.745Z,45.07
2018-12-05T18:01:25.176Z,46.50
2018-12-05T18:03:53.748Z,44.13
2018-12-05T18:06:22.144Z,42.97
2018-12-05T18:08:50.490Z,42.50
2018-12-05T18:11:18.894Z,43.70
2018-12-05T18:13:47.327Z,41.80
2018-12-05T18:16:15.776Z,41.57
2018-12-05T18:18:44.120Z,46.80
2018-12-05T18:21:12.468Z,42.90
2018-12-05T18:23:40.878Z,42.33
2018-12-05T18:26:09.213Z,44.03
2018-12-05T18:28:37.678Z,48.00
2018-12-05T18:31:06.150Z,46.63
2018-12-05T18:33:34.484Z,46.57
2018-12-05T18:36:02.971Z,46.90
2018-12-05T18:38:31.324Z,42.27
2018-12-05T18:40:59.907Z,44.97
2018-12-05T18:43:28.250Z,43.97
2018-12-05T18:45:56.647Z,47.50
2018-12-05T18:48:25.020Z,45.77
2018-12-05T18:50:53.405Z,44.27
2018-12-05T18:53:21.788Z,46.40
2018-12-05T18:55:50.172Z,49.00
2018-12-05T18:58:18.501Z,48.57
2018-12-05T19:00:46.951Z,48.60
2018-12-05T19:03:15.496Z,44.17
2018-12-05T19:05:43.955Z,45.20
2018-12-05T19:08:12.317Z,44.70
2018-12-05T19:10:40.834Z,41.97
2018-12-05T19:13:09.216Z,46.20
2018-12-05T19:15:37.598Z,44.60
2018-12-05T19:18:06.001Z,46.00
2018-12-05T19:20:34.650Z,46.93
2018-12-05T19:23:03.000Z,46.40
2018-12-05T19:25:31.411Z,41.40
2018-12-05T19:27:59.793Z,40.67
2018-12-05T19:30:28.184Z,43.40
2018-12-05T19:32:56.569Z,42.27
2018-12-05T19:35:24.970Z,43.70
2018-12-05T19:37:53.368Z,42.23
2018-12-05T19:40:21.721Z,44.20
2018-12-05T19:42:50.350Z,40.97
2018-12-05T19:45:18.725Z,43.47
2018-12-05T19:47:47.097Z,44.83
2018-12-05T19:50:15.582Z,45.53
2018-12-05T19:52:43.965Z,46.27
2018-12-05T19:55:13.352Z,48.03
2018-12-05T19:57:41.799Z,43.93
2018-12-05T20:00:11.232Z,42.27
2018-12-05T20:02:39.708Z,42.27
2018-12-05T20:05:08.232Z,48.13
2018-12-05T20:07:36.616Z,41.87
2018-12-05T20:10:05.075Z,44.10
2018-12-05T20:12:33.559Z,43.77
2018-12-05T20:15:02.002Z,43.50
2018-12-05T20:17:30.433Z,41.50
2018-12-05T20:19:59.008Z,40.50
2018-12-05T20:22:27.514Z,40.87
2018-12-05T20:24:55.911Z,41.40
2018-12-05T20:27:24.530Z,41.53
2018-12-05T20:29:52.887Z,39.40
2018-12-05T20:32:21.251Z,39.37
2018-12-05T20:34:49.695Z,44.47
2018-12-05T20:37:18.117Z,43.93
2018-12-05T20:39:46.517Z,39.87
2018-12-05T20:42:14.905Z,39.77
2018-12-05T20:44:43.286Z,40.30
2018-12-05T20:47:11.838Z,40.40
2018-12-05T20:49:40.229Z,41.57
2018-12-05T20:52:08.836Z,44.57
2018-12-05T20:54:37.415Z,41.17
2018-12-05T20:57:05.881Z,41.60
2018-12-05T20:59:34.522Z,43.17
2018-12-05T21:02:02.919Z,47.53
2018-12-05T21:04:31.310Z,44.47
2018-12-05T21:06:59.893Z,40.87
2018-12-05T21:09:28.298Z,41.63
2018-12-05T21:11:56.681Z,47.67
2018-12-05T21:14:25.111Z,41.83
2018-12-05T21:16:53.486Z,41.40
2018-12-05T21:19:22.352Z,42.73
2018-12-05T21:21:51.089Z,46.93
2018-12-05T21:24:19.429Z,52.40
2018-12-05T21:26:47.942Z,42.83
2018-12-05T21:29:16.351Z,55.27
2018-12-05T21:31:44.768Z,45.10
2018-12-05T21:34:13.222Z,43.20
2018-12-05T21:36:41.671Z,43.37
2018-12-05T21:39:11.467Z,44.60
2018-12-05T21:41:39.998Z,39.70
2018-12-05T21:44:08.343Z,42.40
2018-12-05T21:46:36.796Z,45.70
2018-12-05T21:49:05.236Z,43.37
2018-12-05T21:51:33.628Z,44.03
2018-12-05T21:54:02.039Z,41.90
2018-12-05T21:56:30.476Z,40.53
2018-12-05T21:58:59.254Z,46.23
2018-12-05T22:01:27.640Z,40.20
2018-12-05T22:03:55.980Z,45.90
2018-12-05T22:06:24.384Z,43.80
2018-12-05T22:08:52.773Z,42.30
2018-12-05T22:11:21.126Z,42.20
2018-12-05T22:13:49.813Z,43.37
2018-12-05T22:16:18.230Z,41.93
2018-12-05T22:18:46.567Z,42.10
2018-12-05T22:21:15.041Z,41.00
2018-12-05T22:23:43.427Z,40.97
2018-12-05T22:26:11.849Z,41.60
2018-12-05T22:28:40.204Z,41.53
2018-12-05T22:31:08.642Z,37.60
2018-12-05T22:33:37.050Z,40.73
2018-12-05T22:36:05.432Z,42.23
2018-12-05T22:38:33.782Z,44.70
2018-12-05T22:41:02.644Z,41.77
2018-12-05T22:43:30.980Z,43.17
2018-12-05T22:45:59.341Z,44.50
2018-12-05T22:48:27.801Z,40.47
2018-12-05T22:50:56.136Z,41.87
2018-12-05T22:53:24.485Z,44.00
2018-12-05T22:55:53.063Z,43.70
2018-12-05T22:58:21.390Z,43.50
2018-12-05T23:00:52.421Z,41.40
2018-12-05T23:03:20.884Z,41.37
2018-12-05T23:05:49.223Z,45.37
2018-12-05T23:08:17.610Z,42.50
2018-12-05T23:10:45.968Z,42.50
2018-12-05T23:13:14.442Z,42.23
2018-12-05T23:15:42.987Z,43.80
2018-12-05T23:18:12.321Z,44.30
2018-12-05T23:20:40.670Z,39.57
2018-12-05T23:23:09.041Z,40.03
2018-12-05T23:25:37.399Z,42.40
2018-12-05T23:28:05.740Z,42.97
2018-12-05T23:30:34.387Z,41.73
2018-12-05T23:33:02.747Z,43.67
2018-12-05T23:35:31.168Z,44.80
2018-12-05T23:37:59.578Z,41.97
2018-12-05T23:43:31.429Z,48.40
2018-12-05T23:45:59.765Z,44.50
2018-12-05T23:48:28.204Z,47.23
2018-12-05T23:50:56.581Z,43.20
2018-12-05T23:53:24.922Z,44.90
2018-12-05T23:55:53.511Z,47.53
2018-12-05T23:58:22.039Z,46.87
